sensor_id;sensor_type;location;lat;lon;timestamp;P1;durP1;ratioP1;P2;durP2;ratioP2
45274;SDS011;31019;43.780;25.948;2022-12-18T00:00:48;78.00;;;72.00;;
45274;SDS011;31019;43.780;25.948;2022-12-18T00:03:15;75.88;;;69.78;;
45274;SDS011;31019;43.780;25.948;2022-12-18T00:05:46;77.28;;;71.00;;
45274;SDS011;31019;43.780;25.948;2022-12-18T00:08:13;74.00;;;68.00;;
45274;SDS011;31019;43.780;25.948;2022-12-18T00:10:40;76.45;;;69.75;;
45274;SDS011;31019;43.780;25.948;2022-12-18T00:13:07;75.75;;;69.40;;
45274;SDS011;31019;43.780;25.948;2022-12-18T00:15:35;71.85;;;65.65;;
45274;SDS011;31019;43.780;25.948;2022-12-18T00:18:03;73.07;;;67.15;;
45274;SDS011;31019;43.780;25.948;2022-12-18T00:20:30;74.03;;;67.60;;
45274;SDS011;31019;43.780;25.948;2022-12-18T00:22:57;68.40;;;62.17;;
45274;SDS011;31019;43.780;25.948;2022-12-18T00:25:24;69.60;;;63.03;;
45274;SDS011;31019;43.780;25.948;2022-12-18T00:27:50;77.32;;;70.70;;
45274;SDS011;31019;43.780;25.948;2022-12-18T00:30:17;79.45;;;72.75;;
45274;SDS011;31019;43.780;25.948;2022-12-18T00:32:45;76.32;;;69.93;;
45274;SDS011;31019;43.780;25.948;2022-12-18T00:35:12;75.97;;;69.20;;
45274;SDS011;31019;43.780;25.948;2022-12-18T00:37:39;77.30;;;70.82;;
45274;SDS011;31019;43.780;25.948;2022-12-18T00:40:06;71.22;;;64.97;;
45274;SDS011;31019;43.780;25.948;2022-12-18T00:42:34;69.45;;;63.25;;
45274;SDS011;31019;43.780;25.948;2022-12-18T00:45:18;72.78;;;66.38;;
45274;SDS011;31019;43.780;25.948;2022-12-18T00:47:46;76.43;;;69.80;;
45274;SDS011;31019;43.780;25.948;2022-12-18T00:50:13;72.78;;;66.35;;
45274;SDS011;31019;43.780;25.948;2022-12-18T00:52:40;71.82;;;65.32;;
45274;SDS011;31019;43.780;25.948;2022-12-18T00:55:07;73.85;;;66.88;;
45274;SDS011;31019;43.780;25.948;2022-12-18T00:57:34;72.60;;;66.20;;
45274;SDS011;31019;43.780;25.948;2022-12-18T01:00:00;76.18;;;70.15;;
45274;SDS011;31019;43.780;25.948;2022-12-18T01:02:42;74.07;;;67.07;;
45274;SDS011;31019;43.780;25.948;2022-12-18T01:05:11;75.35;;;68.55;;
45274;SDS011;31019;43.780;25.948;2022-12-18T01:07:39;80.50;;;73.22;;
45274;SDS011;31019;43.780;25.948;2022-12-18T01:10:06;75.28;;;68.72;;
45274;SDS011;31019;43.780;25.948;2022-12-18T01:12:35;77.07;;;70.30;;
45274;SDS011;31019;43.780;25.948;2022-12-18T01:15:02;77.32;;;70.40;;
45274;SDS011;31019;43.780;25.948;2022-12-18T01:17:31;76.20;;;69.53;;
45274;SDS011;31019;43.780;25.948;2022-12-18T01:19:58;73.47;;;67.10;;
45274;SDS011;31019;43.780;25.948;2022-12-18T01:22:26;79.90;;;72.97;;
45274;SDS011;31019;43.780;25.948;2022-12-18T01:24:53;74.68;;;68.28;;
45274;SDS011;31019;43.780;25.948;2022-12-18T01:27:20;77.45;;;70.70;;
45274;SDS011;31019;43.780;25.948;2022-12-18T01:29:47;71.70;;;65.40;;
45274;SDS011;31019;43.780;25.948;2022-12-18T01:32:13;73.28;;;66.70;;
45274;SDS011;31019;43.780;25.948;2022-12-18T01:34:40;76.47;;;69.88;;
45274;SDS011;31019;43.780;25.948;2022-12-18T01:37:07;78.80;;;72.10;;
45274;SDS011;31019;43.780;25.948;2022-12-18T01:39:36;75.32;;;68.55;;
45274;SDS011;31019;43.780;25.948;2022-12-18T01:42:05;75.40;;;68.82;;
45274;SDS011;31019;43.780;25.948;2022-12-18T01:47:27;73.25;;;66.25;;
45274;SDS011;31019;43.780;25.948;2022-12-18T01:49:58;73.88;;;67.18;;
45274;SDS011;31019;43.780;25.948;2022-12-18T01:52:28;77.28;;;70.45;;
45274;SDS011;31019;43.780;25.948;2022-12-18T01:54:59;77.75;;;70.75;;
45274;SDS011;31019;43.780;25.948;2022-12-18T01:57:28;77.60;;;70.78;;
45274;SDS011;31019;43.780;25.948;2022-12-18T01:59:57;75.60;;;69.15;;
45274;SDS011;31019;43.780;25.948;2022-12-18T02:02:27;77.45;;;70.68;;
45274;SDS011;31019;43.780;25.948;2022-12-18T02:04:54;70.63;;;64.57;;
45274;SDS011;31019;43.780;25.948;2022-12-18T02:07:23;77.82;;;71.32;;
45274;SDS011;31019;43.780;25.948;2022-12-18T02:09:57;72.10;;;65.63;;
45274;SDS011;31019;43.780;25.948;2022-12-18T02:12:31;72.53;;;66.35;;
45274;SDS011;31019;43.780;25.948;2022-12-18T02:15:09;69.63;;;63.80;;
45274;SDS011;31019;43.780;25.948;2022-12-18T02:17:43;70.68;;;64.45;;
45274;SDS011;31019;43.780;25.948;2022-12-18T02:20:16;71.85;;;66.18;;
45274;SDS011;31019;43.780;25.948;2022-12-18T02:25:24;72.82;;;66.00;;
45274;SDS011;31019;43.780;25.948;2022-12-18T02:28:08;63.85;;;58.13;;
45274;SDS011;31019;43.780;25.948;2022-12-18T02:30:37;76.32;;;68.95;;
45274;SDS011;31019;43.780;25.948;2022-12-18T02:33:06;66.95;;;60.67;;
45274;SDS011;31019;43.780;25.948;2022-12-18T02:35:34;64.07;;;58.35;;
45274;SDS011;31019;43.780;25.948;2022-12-18T02:38:04;64.75;;;58.80;;
45274;SDS011;31019;43.780;25.948;2022-12-18T02:40:32;64.93;;;58.90;;
45274;SDS011;31019;43.780;25.948;2022-12-18T02:43:02;71.07;;;64.70;;
45274;SDS011;31019;43.780;25.948;2022-12-18T02:45:34;70.03;;;64.35;;
45274;SDS011;31019;43.780;25.948;2022-12-18T02:48:01;71.45;;;65.13;;
45274;SDS011;31019;43.780;25.948;2022-12-18T02:50:30;72.13;;;65.75;;
45274;SDS011;31019;43.780;25.948;2022-12-18T02:53:04;73.05;;;66.45;;
45274;SDS011;31019;43.780;25.948;2022-12-18T02:55:43;71.43;;;64.63;;
45274;SDS011;31019;43.780;25.948;2022-12-18T02:58:20;74.30;;;67.18;;
45274;SDS011;31019;43.780;25.948;2022-12-18T03:00:59;76.50;;;69.05;;
45274;SDS011;31019;43.780;25.948;2022-12-18T03:03:31;68.78;;;62.03;;
45274;SDS011;31019;43.780;25.948;2022-12-18T03:06:03;77.32;;;69.85;;
45274;SDS011;31019;43.780;25.948;2022-12-18T03:08:36;75.53;;;68.70;;
45274;SDS011;31019;43.780;25.948;2022-12-18T03:11:07;79.68;;;72.13;;
45274;SDS011;31019;43.780;25.948;2022-12-18T03:13:37;80.93;;;72.60;;
45274;SDS011;31019;43.780;25.948;2022-12-18T03:16:10;80.47;;;73.05;;
45274;SDS011;31019;43.780;25.948;2022-12-18T03:18:42;80.43;;;72.57;;
45274;SDS011;31019;43.780;25.948;2022-12-18T03:21:12;82.13;;;74.40;;
45274;SDS011;31019;43.780;25.948;2022-12-18T03:23:40;77.53;;;70.20;;
45274;SDS011;31019;43.780;25.948;2022-12-18T03:26:12;88.53;;;80.53;;
45274;SDS011;31019;43.780;25.948;2022-12-18T03:28:42;77.15;;;70.18;;
45274;SDS011;31019;43.780;25.948;2022-12-18T03:31:15;71.82;;;65.05;;
45274;SDS011;31019;43.780;25.948;2022-12-18T03:33:45;75.90;;;68.68;;
45274;SDS011;31019;43.780;25.948;2022-12-18T03:36:17;73.38;;;66.15;;
45274;SDS011;31019;43.780;25.948;2022-12-18T03:38:45;80.90;;;73.60;;
45274;SDS011;31019;43.780;25.948;2022-12-18T03:41:15;76.03;;;68.13;;
45274;SDS011;31019;43.780;25.948;2022-12-18T03:43:48;71.18;;;64.15;;
45274;SDS011;31019;43.780;25.948;2022-12-18T03:46:23;76.88;;;69.53;;
45274;SDS011;31019;43.780;25.948;2022-12-18T03:48:56;84.50;;;76.75;;
45274;SDS011;31019;43.780;25.948;2022-12-18T03:51:28;75.97;;;68.38;;
45274;SDS011;31019;43.780;25.948;2022-12-18T03:54:02;81.13;;;73.45;;
45274;SDS011;31019;43.780;25.948;2022-12-18T03:56:31;80.63;;;72.75;;
45274;SDS011;31019;43.780;25.948;2022-12-18T03:59:02;86.80;;;78.37;;
45274;SDS011;31019;43.780;25.948;2022-12-18T04:01:34;77.57;;;70.15;;
45274;SDS011;31019;43.780;25.948;2022-12-18T04:04:04;84.05;;;75.68;;
45274;SDS011;31019;43.780;25.948;2022-12-18T04:06:34;90.07;;;81.00;;
45274;SDS011;31019;43.780;25.948;2022-12-18T04:09:02;82.13;;;73.53;;
45274;SDS011;31019;43.780;25.948;2022-12-18T04:11:30;82.18;;;73.80;;
45274;SDS011;31019;43.780;25.948;2022-12-18T04:13:57;88.13;;;79.40;;
45274;SDS011;31019;43.780;25.948;2022-12-18T04:16:25;82.50;;;73.88;;
45274;SDS011;31019;43.780;25.948;2022-12-18T04:21:34;79.25;;;69.78;;
45274;SDS011;31019;43.780;25.948;2022-12-18T04:24:01;77.10;;;69.00;;
45274;SDS011;31019;43.780;25.948;2022-12-18T04:26:27;77.65;;;69.40;;
45274;SDS011;31019;43.780;25.948;2022-12-18T04:28:54;78.72;;;70.30;;
45274;SDS011;31019;43.780;25.948;2022-12-18T04:31:21;77.95;;;69.32;;
45274;SDS011;31019;43.780;25.948;2022-12-18T04:33:48;82.57;;;72.70;;
45274;SDS011;31019;43.780;25.948;2022-12-18T04:36:15;81.22;;;70.13;;
45274;SDS011;31019;43.780;25.948;2022-12-18T04:38:44;77.97;;;69.43;;
45274;SDS011;31019;43.780;25.948;2022-12-18T04:41:13;78.80;;;68.72;;
45274;SDS011;31019;43.780;25.948;2022-12-18T04:43:40;74.78;;;66.68;;
45274;SDS011;31019;43.780;25.948;2022-12-18T04:46:07;76.45;;;68.55;;
45274;SDS011;31019;43.780;25.948;2022-12-18T04:48:34;78.95;;;70.82;;
45274;SDS011;31019;43.780;25.948;2022-12-18T04:51:02;74.13;;;65.97;;
45274;SDS011;31019;43.780;25.948;2022-12-18T04:53:29;76.40;;;67.90;;
45274;SDS011;31019;43.780;25.948;2022-12-18T04:56:03;78.57;;;70.25;;
45274;SDS011;31019;43.780;25.948;2022-12-18T04:58:31;77.80;;;69.30;;
45274;SDS011;31019;43.780;25.948;2022-12-18T05:01:00;73.05;;;65.40;;
45274;SDS011;31019;43.780;25.948;2022-12-18T05:03:28;79.63;;;71.00;;
45274;SDS011;31019;43.780;25.948;2022-12-18T05:05:55;80.30;;;71.38;;
45274;SDS011;31019;43.780;25.948;2022-12-18T05:08:21;73.03;;;65.35;;
45274;SDS011;31019;43.780;25.948;2022-12-18T05:10:48;76.63;;;68.68;;
45274;SDS011;31019;43.780;25.948;2022-12-18T05:13:16;76.07;;;67.93;;
45274;SDS011;31019;43.780;25.948;2022-12-18T05:15:50;65.47;;;58.83;;
45274;SDS011;31019;43.780;25.948;2022-12-18T05:18:18;75.45;;;65.75;;
45274;SDS011;31019;43.780;25.948;2022-12-18T05:20:44;70.25;;;63.35;;
45274;SDS011;31019;43.780;25.948;2022-12-18T05:23:11;78.75;;;67.25;;
45274;SDS011;31019;43.780;25.948;2022-12-18T05:25:38;79.03;;;68.07;;
45274;SDS011;31019;43.780;25.948;2022-12-18T05:28:05;76.30;;;66.63;;
45274;SDS011;31019;43.780;25.948;2022-12-18T05:30:33;70.10;;;63.00;;
45274;SDS011;31019;43.780;25.948;2022-12-18T05:33:00;72.80;;;64.28;;
45274;SDS011;31019;43.780;25.948;2022-12-18T05:35:27;74.72;;;66.63;;
45274;SDS011;31019;43.780;25.948;2022-12-18T05:37:54;74.07;;;65.05;;
45274;SDS011;31019;43.780;25.948;2022-12-18T05:40:20;78.13;;;69.78;;
45274;SDS011;31019;43.780;25.948;2022-12-18T05:42:47;73.63;;;66.18;;
45274;SDS011;31019;43.780;25.948;2022-12-18T05:45:14;77.85;;;68.97;;
45274;SDS011;31019;43.780;25.948;2022-12-18T05:50:09;78.75;;;67.88;;
45274;SDS011;31019;43.780;25.948;2022-12-18T05:52:36;68.57;;;60.47;;
45274;SDS011;31019;43.780;25.948;2022-12-18T05:55:03;73.20;;;65.32;;
45274;SDS011;31019;43.780;25.948;2022-12-18T05:57:30;81.97;;;67.15;;
45274;SDS011;31019;43.780;25.948;2022-12-18T05:59:57;77.43;;;64.80;;
45274;SDS011;31019;43.780;25.948;2022-12-18T06:02:23;71.85;;;63.00;;
45274;SDS011;31019;43.780;25.948;2022-12-18T06:04:52;76.22;;;67.53;;
45274;SDS011;31019;43.780;25.948;2022-12-18T06:07:18;71.20;;;63.85;;
45274;SDS011;31019;43.780;25.948;2022-12-18T06:10:01;83.13;;;74.18;;
45274;SDS011;31019;43.780;25.948;2022-12-18T06:12:27;72.75;;;62.05;;
45274;SDS011;31019;43.780;25.948;2022-12-18T06:14:54;78.45;;;70.20;;
45274;SDS011;31019;43.780;25.948;2022-12-18T06:17:21;77.40;;;67.55;;
45274;SDS011;31019;43.780;25.948;2022-12-18T06:19:48;75.68;;;62.20;;
45274;SDS011;31019;43.780;25.948;2022-12-18T06:22:14;76.43;;;64.15;;
45274;SDS011;31019;43.780;25.948;2022-12-18T06:24:41;74.15;;;65.25;;
45274;SDS011;31019;43.780;25.948;2022-12-18T06:27:10;76.93;;;64.53;;
45274;SDS011;31019;43.780;25.948;2022-12-18T06:29:36;78.47;;;66.10;;
45274;SDS011;31019;43.780;25.948;2022-12-18T06:32:03;65.03;;;58.00;;
45274;SDS011;31019;43.780;25.948;2022-12-18T06:34:30;74.20;;;63.05;;
45274;SDS011;31019;43.780;25.948;2022-12-18T06:36:57;72.40;;;64.13;;
45274;SDS011;31019;43.780;25.948;2022-12-18T06:39:24;69.63;;;58.25;;
45274;SDS011;31019;43.780;25.948;2022-12-18T06:41:53;73.97;;;65.97;;
45274;SDS011;31019;43.780;25.948;2022-12-18T06:44:21;70.63;;;61.33;;
45274;SDS011;31019;43.780;25.948;2022-12-18T06:46:48;77.65;;;65.72;;
45274;SDS011;31019;43.780;25.948;2022-12-18T06:49:15;78.30;;;68.53;;
45274;SDS011;31019;43.780;25.948;2022-12-18T06:51:41;67.47;;;60.17;;
45274;SDS011;31019;43.780;25.948;2022-12-18T06:54:08;73.07;;;65.07;;
45274;SDS011;31019;43.780;25.948;2022-12-18T06:56:35;73.82;;;66.43;;
45274;SDS011;31019;43.780;25.948;2022-12-18T06:59:02;75.35;;;67.43;;
45274;SDS011;31019;43.780;25.948;2022-12-18T07:01:30;78.88;;;68.22;;
45274;SDS011;31019;43.780;25.948;2022-12-18T07:03:57;71.72;;;64.45;;
45274;SDS011;31019;43.780;25.948;2022-12-18T07:06:25;73.22;;;65.78;;
45274;SDS011;31019;43.780;25.948;2022-12-18T07:08:52;76.35;;;66.35;;
45274;SDS011;31019;43.780;25.948;2022-12-18T07:11:19;61.45;;;55.47;;
45274;SDS011;31019;43.780;25.948;2022-12-18T07:13:46;71.00;;;60.10;;
45274;SDS011;31019;43.780;25.948;2022-12-18T07:16:13;66.65;;;59.35;;
45274;SDS011;31019;43.780;25.948;2022-12-18T07:18:45;68.63;;;61.45;;
45274;SDS011;31019;43.780;25.948;2022-12-18T07:21:12;67.05;;;60.08;;
45274;SDS011;31019;43.780;25.948;2022-12-18T07:23:40;66.43;;;59.28;;
45274;SDS011;31019;43.780;25.948;2022-12-18T07:26:08;62.70;;;56.67;;
45274;SDS011;31019;43.780;25.948;2022-12-18T07:28:37;66.75;;;59.50;;
45274;SDS011;31019;43.780;25.948;2022-12-18T07:31:06;63.60;;;56.92;;
45274;SDS011;31019;43.780;25.948;2022-12-18T07:33:35;67.80;;;60.50;;
45274;SDS011;31019;43.780;25.948;2022-12-18T07:36:04;66.15;;;58.97;;
45274;SDS011;31019;43.780;25.948;2022-12-18T07:38:33;71.05;;;63.58;;
45274;SDS011;31019;43.780;25.948;2022-12-18T07:41:01;74.20;;;66.78;;
45274;SDS011;31019;43.780;25.948;2022-12-18T07:43:28;73.85;;;65.82;;
45274;SDS011;31019;43.780;25.948;2022-12-18T07:45:55;64.47;;;58.88;;
45274;SDS011;31019;43.780;25.948;2022-12-18T07:48:21;65.68;;;59.08;;
45274;SDS011;31019;43.780;25.948;2022-12-18T07:50:48;74.78;;;67.55;;
45274;SDS011;31019;43.780;25.948;2022-12-18T07:53:16;74.93;;;66.72;;
45274;SDS011;31019;43.780;25.948;2022-12-18T07:55:43;71.05;;;63.70;;
45274;SDS011;31019;43.780;25.948;2022-12-18T07:58:10;66.40;;;59.97;;
45274;SDS011;31019;43.780;25.948;2022-12-18T08:00:36;59.35;;;54.22;;
45274;SDS011;31019;43.780;25.948;2022-12-18T08:03:03;70.72;;;63.42;;
45274;SDS011;31019;43.780;25.948;2022-12-18T08:05:30;65.18;;;58.92;;
45274;SDS011;31019;43.780;25.948;2022-12-18T08:07:57;66.45;;;60.35;;
45274;SDS011;31019;43.780;25.948;2022-12-18T08:10:26;60.90;;;55.55;;
45274;SDS011;31019;43.780;25.948;2022-12-18T08:12:52;62.40;;;56.35;;
45274;SDS011;31019;43.780;25.948;2022-12-18T08:15:19;68.20;;;61.30;;
45274;SDS011;31019;43.780;25.948;2022-12-18T08:17:46;66.50;;;60.00;;
45274;SDS011;31019;43.780;25.948;2022-12-18T08:20:13;66.15;;;58.13;;
45274;SDS011;31019;43.780;25.948;2022-12-18T08:22:40;70.38;;;63.08;;
45274;SDS011;31019;43.780;25.948;2022-12-18T08:25:07;69.50;;;62.15;;
45274;SDS011;31019;43.780;25.948;2022-12-18T08:27:36;60.33;;;55.00;;
45274;SDS011;31019;43.780;25.948;2022-12-18T08:30:03;69.35;;;62.22;;
45274;SDS011;31019;43.780;25.948;2022-12-18T08:32:30;69.05;;;61.70;;
45274;SDS011;31019;43.780;25.948;2022-12-18T08:34:57;69.60;;;62.50;;
45274;SDS011;31019;43.780;25.948;2022-12-18T08:37:24;65.68;;;58.75;;
45274;SDS011;31019;43.780;25.948;2022-12-18T08:39:51;67.38;;;60.70;;
45274;SDS011;31019;43.780;25.948;2022-12-18T08:42:18;71.07;;;63.78;;
45274;SDS011;31019;43.780;25.948;2022-12-18T08:45:03;64.60;;;57.72;;
45274;SDS011;31019;43.780;25.948;2022-12-18T08:47:31;66.53;;;59.70;;
45274;SDS011;31019;43.780;25.948;2022-12-18T08:50:13;70.95;;;63.33;;
45274;SDS011;31019;43.780;25.948;2022-12-18T08:52:40;68.63;;;61.55;;
45274;SDS011;31019;43.780;25.948;2022-12-18T08:55:07;71.50;;;62.13;;
45274;SDS011;31019;43.780;25.948;2022-12-18T08:57:35;70.18;;;62.63;;
45274;SDS011;31019;43.780;25.948;2022-12-18T09:00:02;64.15;;;57.65;;
45274;SDS011;31019;43.780;25.948;2022-12-18T09:02:29;70.38;;;63.20;;
45274;SDS011;31019;43.780;25.948;2022-12-18T09:04:55;74.07;;;66.18;;
45274;SDS011;31019;43.780;25.948;2022-12-18T09:07:24;66.20;;;59.55;;
45274;SDS011;31019;43.780;25.948;2022-12-18T09:12:52;70.70;;;62.88;;
45274;SDS011;31019;43.780;25.948;2022-12-18T09:15:21;66.72;;;60.03;;
45274;SDS011;31019;43.780;25.948;2022-12-18T09:17:48;64.43;;;57.75;;
45274;SDS011;31019;43.780;25.948;2022-12-18T09:20:15;66.50;;;59.63;;
45274;SDS011;31019;43.780;25.948;2022-12-18T09:22:41;65.97;;;59.20;;
45274;SDS011;31019;43.780;25.948;2022-12-18T09:25:08;63.60;;;57.00;;
45274;SDS011;31019;43.780;25.948;2022-12-18T09:27:35;66.47;;;59.95;;
45274;SDS011;31019;43.780;25.948;2022-12-18T09:30:04;68.70;;;61.85;;
45274;SDS011;31019;43.780;25.948;2022-12-18T09:32:32;65.25;;;57.97;;
45274;SDS011;31019;43.780;25.948;2022-12-18T09:34:59;72.10;;;64.07;;
45274;SDS011;31019;43.780;25.948;2022-12-18T09:37:26;68.85;;;61.65;;
45274;SDS011;31019;43.780;25.948;2022-12-18T09:39:53;68.00;;;60.65;;
45274;SDS011;31019;43.780;25.948;2022-12-18T09:42:20;69.50;;;61.92;;
45274;SDS011;31019;43.780;25.948;2022-12-18T09:44:49;68.20;;;60.28;;
45274;SDS011;31019;43.780;25.948;2022-12-18T09:47:20;64.22;;;57.65;;
45274;SDS011;31019;43.780;25.948;2022-12-18T09:49:50;63.55;;;56.65;;
45274;SDS011;31019;43.780;25.948;2022-12-18T09:52:21;64.10;;;57.78;;
45274;SDS011;31019;43.780;25.948;2022-12-18T09:54:53;68.70;;;60.95;;
45274;SDS011;31019;43.780;25.948;2022-12-18T09:57:23;71.32;;;63.90;;
45274;SDS011;31019;43.780;25.948;2022-12-18T09:59:52;62.90;;;56.42;;
45274;SDS011;31019;43.780;25.948;2022-12-18T10:02:24;67.03;;;59.95;;
45274;SDS011;31019;43.780;25.948;2022-12-18T10:04:55;58.78;;;53.65;;
45274;SDS011;31019;43.780;25.948;2022-12-18T10:07:32;63.15;;;56.55;;
45274;SDS011;31019;43.780;25.948;2022-12-18T10:10:12;59.60;;;53.53;;
45274;SDS011;31019;43.780;25.948;2022-12-18T10:12:49;64.68;;;57.63;;
45274;SDS011;31019;43.780;25.948;2022-12-18T10:15:24;66.13;;;59.28;;
45274;SDS011;31019;43.780;25.948;2022-12-18T10:17:58;65.30;;;58.58;;
45274;SDS011;31019;43.780;25.948;2022-12-18T10:20:34;67.65;;;60.35;;
45274;SDS011;31019;43.780;25.948;2022-12-18T10:23:09;67.97;;;60.60;;
45274;SDS011;31019;43.780;25.948;2022-12-18T10:25:46;71.30;;;63.92;;
45274;SDS011;31019;43.780;25.948;2022-12-18T10:28:19;72.55;;;64.70;;
45274;SDS011;31019;43.780;25.948;2022-12-18T10:30:47;71.30;;;63.33;;
45274;SDS011;31019;43.780;25.948;2022-12-18T10:35:57;69.13;;;62.42;;
45274;SDS011;31019;43.780;25.948;2022-12-18T10:38:25;72.85;;;63.08;;
45274;SDS011;31019;43.780;25.948;2022-12-18T10:40:54;70.90;;;62.75;;
45274;SDS011;31019;43.780;25.948;2022-12-18T10:43:23;79.20;;;66.60;;
45274;SDS011;31019;43.780;25.948;2022-12-18T10:45:59;62.33;;;56.42;;
45274;SDS011;31019;43.780;25.948;2022-12-18T10:48:28;66.38;;;59.50;;
45274;SDS011;31019;43.780;25.948;2022-12-18T10:50:58;71.63;;;62.63;;
45274;SDS011;31019;43.780;25.948;2022-12-18T10:53:26;68.22;;;61.17;;
45274;SDS011;31019;43.780;25.948;2022-12-18T10:55:55;70.78;;;61.83;;
45274;SDS011;31019;43.780;25.948;2022-12-18T10:58:30;71.88;;;63.95;;
45274;SDS011;31019;43.780;25.948;2022-12-18T11:01:01;75.60;;;64.60;;
45274;SDS011;31019;43.780;25.948;2022-12-18T11:03:31;80.57;;;65.93;;
45274;SDS011;31019;43.780;25.948;2022-12-18T11:06:03;84.15;;;66.07;;
45274;SDS011;31019;43.780;25.948;2022-12-18T11:08:32;75.72;;;66.63;;
45274;SDS011;31019;43.780;25.948;2022-12-18T11:10:59;130.05;;;82.10;;
45274;SDS011;31019;43.780;25.948;2022-12-18T11:13:26;94.82;;;71.00;;
45274;SDS011;31019;43.780;25.948;2022-12-18T11:15:55;93.80;;;74.50;;
45274;SDS011;31019;43.780;25.948;2022-12-18T11:18:23;125.25;;;90.78;;
45274;SDS011;31019;43.780;25.948;2022-12-18T11:20:54;77.47;;;64.80;;
45274;SDS011;31019;43.780;25.948;2022-12-18T11:23:25;80.85;;;66.55;;
45274;SDS011;31019;43.780;25.948;2022-12-18T11:25:57;73.95;;;65.47;;
45274;SDS011;31019;43.780;25.948;2022-12-18T11:28:26;72.78;;;64.85;;
45274;SDS011;31019;43.780;25.948;2022-12-18T11:33:56;76.47;;;65.20;;
45274;SDS011;31019;43.780;25.948;2022-12-18T11:36:32;76.35;;;67.30;;
45274;SDS011;31019;43.780;25.948;2022-12-18T11:39:07;73.78;;;65.47;;
45274;SDS011;31019;43.780;25.948;2022-12-18T11:41:41;73.25;;;65.30;;
45274;SDS011;31019;43.780;25.948;2022-12-18T11:44:32;77.55;;;67.97;;
45274;SDS011;31019;43.780;25.948;2022-12-18T11:47:08;94.80;;;75.95;;
45274;SDS011;31019;43.780;25.948;2022-12-18T11:49:41;79.15;;;66.93;;
45274;SDS011;31019;43.780;25.948;2022-12-18T11:52:14;86.05;;;69.35;;
45274;SDS011;31019;43.780;25.948;2022-12-18T11:54:45;84.07;;;69.30;;
45274;SDS011;31019;43.780;25.948;2022-12-18T11:57:14;74.95;;;62.65;;
45274;SDS011;31019;43.780;25.948;2022-12-18T11:59:51;70.22;;;62.50;;
45274;SDS011;31019;43.780;25.948;2022-12-18T12:02:34;74.80;;;65.32;;
45274;SDS011;31019;43.780;25.948;2022-12-18T12:05:16;76.43;;;64.38;;
45274;SDS011;31019;43.780;25.948;2022-12-18T12:07:50;75.18;;;63.75;;
45274;SDS011;31019;43.780;25.948;2022-12-18T12:10:28;73.90;;;63.88;;
45274;SDS011;31019;43.780;25.948;2022-12-18T12:13:09;77.88;;;67.05;;
45274;SDS011;31019;43.780;25.948;2022-12-18T12:15:49;75.30;;;64.57;;
45274;SDS011;31019;43.780;25.948;2022-12-18T12:18:28;77.00;;;66.28;;
45274;SDS011;31019;43.780;25.948;2022-12-18T12:21:05;71.70;;;63.75;;
45274;SDS011;31019;43.780;25.948;2022-12-18T12:23:38;72.78;;;64.78;;
45274;SDS011;31019;43.780;25.948;2022-12-18T12:26:15;70.85;;;62.30;;
45274;SDS011;31019;43.780;25.948;2022-12-18T12:31:48;72.25;;;62.30;;
45274;SDS011;31019;43.780;25.948;2022-12-18T12:34:25;76.28;;;64.30;;
45274;SDS011;31019;43.780;25.948;2022-12-18T12:37:01;78.35;;;67.15;;
45274;SDS011;31019;43.780;25.948;2022-12-18T12:39:39;77.22;;;65.68;;
45274;SDS011;31019;43.780;25.948;2022-12-18T12:42:12;79.65;;;65.60;;
45274;SDS011;31019;43.780;25.948;2022-12-18T12:45:05;76.82;;;65.63;;
45274;SDS011;31019;43.780;25.948;2022-12-18T12:47:41;78.68;;;67.35;;
45274;SDS011;31019;43.780;25.948;2022-12-18T12:50:12;77.07;;;63.67;;
45274;SDS011;31019;43.780;25.948;2022-12-18T12:52:42;79.22;;;67.78;;
45274;SDS011;31019;43.780;25.948;2022-12-18T12:55:26;77.22;;;65.70;;
45274;SDS011;31019;43.780;25.948;2022-12-18T12:57:57;80.30;;;66.70;;
45274;SDS011;31019;43.780;25.948;2022-12-18T13:00:30;82.90;;;66.53;;
45274;SDS011;31019;43.780;25.948;2022-12-18T13:03:04;77.57;;;66.65;;
45274;SDS011;31019;43.780;25.948;2022-12-18T13:05:39;80.05;;;66.05;;
45274;SDS011;31019;43.780;25.948;2022-12-18T13:08:21;89.72;;;70.32;;
45274;SDS011;31019;43.780;25.948;2022-12-18T13:10:51;97.88;;;75.20;;
45274;SDS011;31019;43.780;25.948;2022-12-18T13:13:47;85.90;;;72.55;;
45274;SDS011;31019;43.780;25.948;2022-12-18T13:16:14;82.05;;;68.70;;
45274;SDS011;31019;43.780;25.948;2022-12-18T13:18:48;87.73;;;71.23;;
45274;SDS011;31019;43.780;25.948;2022-12-18T13:21:18;82.20;;;69.10;;
45274;SDS011;31019;43.780;25.948;2022-12-18T13:23:49;93.97;;;70.43;;
45274;SDS011;31019;43.780;25.948;2022-12-18T13:26:31;80.15;;;69.18;;
45274;SDS011;31019;43.780;25.948;2022-12-18T13:28:59;80.95;;;70.97;;
45274;SDS011;31019;43.780;25.948;2022-12-18T13:34:25;84.18;;;68.32;;
45274;SDS011;31019;43.780;25.948;2022-12-18T13:36:55;77.32;;;65.80;;
45274;SDS011;31019;43.780;25.948;2022-12-18T13:39:42;76.88;;;67.38;;
45274;SDS011;31019;43.780;25.948;2022-12-18T13:45:40;87.88;;;73.30;;
45274;SDS011;31019;43.780;25.948;2022-12-18T13:48:21;83.13;;;69.38;;
45274;SDS011;31019;43.780;25.948;2022-12-18T13:53:33;79.00;;;68.72;;
45274;SDS011;31019;43.780;25.948;2022-12-18T13:56:04;100.95;;;74.43;;
45274;SDS011;31019;43.780;25.948;2022-12-18T13:58:31;86.00;;;67.78;;
45274;SDS011;31019;43.780;25.948;2022-12-18T14:00:59;94.68;;;74.05;;
45274;SDS011;31019;43.780;25.948;2022-12-18T14:03:29;91.57;;;73.03;;
45274;SDS011;31019;43.780;25.948;2022-12-18T14:05:58;88.20;;;70.28;;
45274;SDS011;31019;43.780;25.948;2022-12-18T14:08:32;88.22;;;71.82;;
45274;SDS011;31019;43.780;25.948;2022-12-18T14:13:30;87.18;;;71.70;;
45274;SDS011;31019;43.780;25.948;2022-12-18T14:16:01;83.80;;;70.53;;
45274;SDS011;31019;43.780;25.948;2022-12-18T14:18:30;83.90;;;68.63;;
45274;SDS011;31019;43.780;25.948;2022-12-18T14:21:02;87.38;;;69.70;;
45274;SDS011;31019;43.780;25.948;2022-12-18T14:23:32;83.57;;;66.50;;
45274;SDS011;31019;43.780;25.948;2022-12-18T14:26:00;108.32;;;78.72;;
45274;SDS011;31019;43.780;25.948;2022-12-18T14:30:54;124.82;;;85.63;;
45274;SDS011;31019;43.780;25.948;2022-12-18T14:33:24;108.30;;;77.88;;
45274;SDS011;31019;43.780;25.948;2022-12-18T14:35:53;219.95;;;109.40;;
45274;SDS011;31019;43.780;25.948;2022-12-18T14:38:28;133.10;;;89.13;;
45274;SDS011;31019;43.780;25.948;2022-12-18T14:40:56;103.32;;;78.25;;
45274;SDS011;31019;43.780;25.948;2022-12-18T14:43:24;97.78;;;78.47;;
45274;SDS011;31019;43.780;25.948;2022-12-18T14:45:52;77.93;;;68.22;;
45274;SDS011;31019;43.780;25.948;2022-12-18T14:48:20;86.05;;;70.78;;
45274;SDS011;31019;43.780;25.948;2022-12-18T14:50:58;86.75;;;69.57;;
45274;SDS011;31019;43.780;25.948;2022-12-18T14:53:34;87.53;;;69.68;;
45274;SDS011;31019;43.780;25.948;2022-12-18T14:56:04;92.93;;;72.53;;
45274;SDS011;31019;43.780;25.948;2022-12-18T14:58:44;90.22;;;69.78;;
45274;SDS011;31019;43.780;25.948;2022-12-18T15:01:17;87.13;;;68.43;;